Terminal Aerodrome Forecast
Issued by NWS

Home | Current Version | Previous Version | Text Only | Print | Product List | Glossary On
Versions: 1 2 3 4 5 6 7 8 9 10 11 12 13 14 15 16
000
FTUS44 KCRP 180523
TAFALI
TAF
KALI 180523Z 1806/1906 12006KT P6SM SCT007 OVC012
      TEMPO 1807/1811 5SM BR BKN007 OVC012
     FM181500 14009KT P6SM BKN025
     FM181800 16014KT P6SM BKN035
     FM182200 15016G22KT P6SM SCT060 BKN250
     FM190100 14013KT P6SM FEW015 BKN250=

USA.gov is the U.S. government's official web portal to all federal, state and local government web resources and services.